createdAt,value
2023-02-14T00:01:20.721Z,6.23
2023-02-14T00:03:49.569Z,6.10
2023-02-14T00:06:17.280Z,6.11
2023-02-14T00:08:45.013Z,6.20
2023-02-14T00:11:13.962Z,6.11
2023-02-14T00:14:01.670Z,5.96
2023-02-14T00:16:29.272Z,6.06
2023-02-14T00:19:05.947Z,6.01
2023-02-14T00:21:36.177Z,6.03
2023-02-14T00:24:09.179Z,6.07
2023-02-14T00:26:38.829Z,6.03
2023-02-14T00:29:08.496Z,5.98
2023-02-14T00:31:37.489Z,5.99
2023-02-14T00:34:06.398Z,6.07
2023-02-14T00:36:34.143Z,6.19
2023-02-14T00:39:08.327Z,6.29
2023-02-14T00:41:38.350Z,6.24
2023-02-14T00:44:06.661Z,6.10
2023-02-14T00:46:35.024Z,6.05
2023-02-14T00:49:02.716Z,5.93
2023-02-14T00:51:31.057Z,5.83
2023-02-14T00:53:58.594Z,5.72
2023-02-14T00:56:26.303Z,5.76
2023-02-14T00:58:53.668Z,5.78
2023-02-14T01:01:21.131Z,5.72
2023-02-14T01:03:48.726Z,5.80
2023-02-14T01:06:16.471Z,5.83
2023-02-14T01:08:44.034Z,5.89
2023-02-14T01:11:14.220Z,5.82
2023-02-14T01:13:42.817Z,5.81
2023-02-14T01:16:16.450Z,5.76
2023-02-14T01:18:44.684Z,5.69
2023-02-14T01:21:24.299Z,5.61
2023-02-14T01:23:55.405Z,5.62
2023-02-14T01:26:24.312Z,5.58
2023-02-14T01:28:52.165Z,5.58
2023-02-14T01:31:22.651Z,5.59
2023-02-14T01:33:50.666Z,5.50
2023-02-14T01:36:30.313Z,5.50
2023-02-14T01:39:02.360Z,5.43
2023-02-14T01:41:32.344Z,5.30
2023-02-14T01:44:01.556Z,5.33
2023-02-14T01:46:32.700Z,5.21
2023-02-14T01:49:09.565Z,5.20
2023-02-14T01:51:41.456Z,5.18
2023-02-14T01:54:10.085Z,5.18
2023-02-14T01:56:43.754Z,5.33
2023-02-14T01:59:19.801Z,5.41
2023-02-14T02:01:50.140Z,5.52
2023-02-14T02:04:32.788Z,5.47
2023-02-14T02:07:05.921Z,5.38
2023-02-14T02:09:42.390Z,5.33
2023-02-14T02:12:10.140Z,5.28
2023-02-14T02:14:37.705Z,5.20
2023-02-14T02:17:11.207Z,5.18
2023-02-14T02:20:16.213Z,5.07
2023-02-14T02:23:17.367Z,5.17
2023-02-14T02:25:47.693Z,5.12
2023-02-14T02:28:40.856Z,5.08
2023-02-14T02:31:32.623Z,4.97
2023-02-14T02:34:18.336Z,5.08
2023-02-14T02:37:02.727Z,5.02
2023-02-14T02:39:58.917Z,4.95
2023-02-14T02:42:42.171Z,4.89
2023-02-14T02:45:33.990Z,4.94
2023-02-14T02:48:10.610Z,4.80
2023-02-14T02:51:05.264Z,4.81
2023-02-14T02:53:35.098Z,4.83
2023-02-14T02:56:28.506Z,4.92
2023-02-14T02:59:20.659Z,4.84
2023-02-14T03:02:11.833Z,4.75
2023-02-14T03:04:53.232Z,4.82
2023-02-14T03:07:37.068Z,4.86
2023-02-14T03:10:16.962Z,4.69
2023-02-14T03:12:54.627Z,4.64
2023-02-14T03:15:27.950Z,4.57
2023-02-14T03:18:16.877Z,4.51
2023-02-14T03:20:54.890Z,4.52
2023-02-14T03:23:29.046Z,4.61
2023-02-14T03:26:15.187Z,4.61
2023-02-14T03:29:04.572Z,4.62
2023-02-14T03:31:54.572Z,4.57
2023-02-14T03:34:45.918Z,4.74
2023-02-14T03:37:52.545Z,4.92
2023-02-14T03:40:27.405Z,4.89
2023-02-14T03:43:00.803Z,4.76
2023-02-14T03:45:34.819Z,4.77
2023-02-14T03:48:08.753Z,4.86
2023-02-14T03:50:40.493Z,4.88
2023-02-14T03:53:10.345Z,4.90
2023-02-14T03:55:49.300Z,4.79
2023-02-14T03:58:26.645Z,4.81
2023-02-14T04:01:01.126Z,4.85
2023-02-14T04:03:31.813Z,4.81
2023-02-14T04:06:00.562Z,4.86
2023-02-14T04:08:29.627Z,4.80
2023-02-14T04:11:00.805Z,4.72
2023-02-14T04:13:28.853Z,4.79
2023-02-14T04:15:56.299Z,4.88
2023-02-14T04:18:42.373Z,4.75
2023-02-14T04:21:11.135Z,4.79
2023-02-14T04:23:38.685Z,4.66
2023-02-14T04:26:06.619Z,4.68
2023-02-14T04:28:34.491Z,4.56
2023-02-14T04:31:04.156Z,4.58
2023-02-14T04:33:32.299Z,4.55
2023-02-14T04:36:01.147Z,4.64
2023-02-14T04:38:28.822Z,4.63
2023-02-14T04:40:56.491Z,4.59
2023-02-14T04:43:24.083Z,4.67
2023-02-14T04:45:51.498Z,4.54
2023-02-14T04:48:19.028Z,4.66
2023-02-14T04:50:52.641Z,4.76
2023-02-14T04:53:20.649Z,4.57
2023-02-14T04:55:50.011Z,4.48
2023-02-14T04:58:18.446Z,4.54
2023-02-14T05:00:45.935Z,4.61
2023-02-14T05:03:13.515Z,4.64
2023-02-14T05:05:40.776Z,4.50
2023-02-14T05:08:08.013Z,4.56
2023-02-14T05:10:35.279Z,4.64
2023-02-14T05:13:02.508Z,4.54
2023-02-14T05:15:29.655Z,4.57
2023-02-14T05:18:01.660Z,4.50
2023-02-14T05:20:29.788Z,4.36
2023-02-14T05:22:59.945Z,4.25
2023-02-14T05:25:27.587Z,4.22
2023-02-14T05:27:54.863Z,4.21
2023-02-14T05:30:26.671Z,4.27
2023-02-14T05:32:54.789Z,4.25
2023-02-14T05:35:22.352Z,4.41
2023-02-14T05:37:50.535Z,4.18
2023-02-14T05:40:18.068Z,4.16
2023-02-14T05:42:45.793Z,4.25
2023-02-14T05:45:13.353Z,4.32
2023-02-14T05:47:41.157Z,4.21
2023-02-14T05:50:09.151Z,4.15
2023-02-14T05:52:37.406Z,4.17
2023-02-14T05:55:05.111Z,4.09
2023-02-14T05:57:32.737Z,4.14
2023-02-14T06:00:00.178Z,4.11
2023-02-14T06:02:27.711Z,4.04
2023-02-14T06:04:55.138Z,3.92
2023-02-14T06:07:22.750Z,4.02
2023-02-14T06:09:49.995Z,4.11
2023-02-14T06:12:17.305Z,4.03
2023-02-14T06:14:45.225Z,3.98
2023-02-14T06:17:12.694Z,3.94
2023-02-14T06:19:39.961Z,3.83
2023-02-14T06:22:07.107Z,3.73
2023-02-14T06:24:34.385Z,3.76
2023-02-14T06:27:01.843Z,3.74
2023-02-14T06:29:29.458Z,3.83
2023-02-14T06:31:57.135Z,3.87
2023-02-14T06:34:24.600Z,3.73
2023-02-14T06:36:51.966Z,3.61
2023-02-14T06:39:19.217Z,3.56
2023-02-14T06:41:46.689Z,3.64
2023-02-14T06:44:14.127Z,3.60
2023-02-14T06:46:41.458Z,3.62
2023-02-14T06:49:10.340Z,3.90
2023-02-14T06:51:37.790Z,4.15
2023-02-14T06:54:05.209Z,4.14
2023-02-14T06:56:32.523Z,4.09
2023-02-14T06:58:59.833Z,3.87
2023-02-14T07:01:27.274Z,3.88
2023-02-14T07:03:54.649Z,3.72
2023-02-14T07:06:22.263Z,3.68
2023-02-14T07:08:49.560Z,3.79
2023-02-14T07:11:16.986Z,3.72
2023-02-14T07:13:44.438Z,3.74
2023-02-14T07:16:12.064Z,3.68
2023-02-14T07:18:39.542Z,3.46
2023-02-14T07:21:07.406Z,3.52
2023-02-14T07:23:35.513Z,3.47
2023-02-14T07:26:03.751Z,3.55
2023-02-14T07:28:31.249Z,3.81
2023-02-14T07:31:01.391Z,4.17
2023-02-14T07:33:29.127Z,4.57
2023-02-14T07:35:56.877Z,4.98
2023-02-14T07:38:24.891Z,5.46
2023-02-14T07:40:54.350Z,6.02
2023-02-14T07:43:21.774Z,6.48
2023-02-14T07:45:49.290Z,6.90
2023-02-14T07:48:16.905Z,7.30
2023-02-14T07:50:44.550Z,7.60
2023-02-14T07:53:12.113Z,7.91
2023-02-14T07:55:40.736Z,8.13
2023-02-14T07:58:08.269Z,8.52
2023-02-14T08:00:35.827Z,8.85
2023-02-14T08:03:03.329Z,9.12
2023-02-14T08:05:30.596Z,9.34
2023-02-14T08:07:57.779Z,9.36
2023-02-14T08:10:25.183Z,9.37
2023-02-14T08:13:01.617Z,9.49
2023-02-14T08:15:53.180Z,9.60
2023-02-14T08:18:23.267Z,9.83
2023-02-14T08:20:50.926Z,9.95
2023-02-14T08:23:19.742Z,9.97
2023-02-14T08:25:49.522Z,9.94
2023-02-14T08:28:22.492Z,9.73
2023-02-14T08:30:51.210Z,9.63
2023-02-14T08:33:19.475Z,9.54
2023-02-14T08:35:47.247Z,9.66
2023-02-14T08:38:14.836Z,9.66
2023-02-14T08:40:42.636Z,9.87
2023-02-14T08:43:10.278Z,10.11
2023-02-14T08:45:38.299Z,10.42
2023-02-14T08:48:09.077Z,10.84
2023-02-14T08:50:37.590Z,11.26
2023-02-14T08:53:13.477Z,11.63
2023-02-14T08:55:41.353Z,11.94
2023-02-14T08:58:09.129Z,12.27
2023-02-14T09:00:36.827Z,12.33
2023-02-14T09:03:04.532Z,12.38
2023-02-14T09:05:32.934Z,12.43
2023-02-14T09:08:02.915Z,12.34
2023-02-14T09:10:30.498Z,12.15
2023-02-14T09:12:57.878Z,12.05
2023-02-14T09:15:25.260Z,12.07
2023-02-14T09:17:52.534Z,12.11
2023-02-14T09:20:20.055Z,12.05
2023-02-14T09:22:48.810Z,11.98
2023-02-14T09:25:17.517Z,11.66
2023-02-14T09:27:44.946Z,11.35
2023-02-14T09:30:13.486Z,11.28
2023-02-14T09:32:41.039Z,11.21
2023-02-14T09:35:20.637Z,11.04
2023-02-14T09:37:48.098Z,10.69
2023-02-14T09:40:16.977Z,10.71
2023-02-14T09:43:01.840Z,10.88
2023-02-14T09:45:32.374Z,10.75
2023-02-14T09:48:34.460Z,10.84
2023-02-14T09:51:15.116Z,11.07
2023-02-14T09:53:51.363Z,11.26
2023-02-14T09:56:42.759Z,11.34
2023-02-14T09:59:20.033Z,11.19
2023-02-14T10:01:57.546Z,11.01
2023-02-14T10:04:40.876Z,10.79
2023-02-14T10:07:17.592Z,10.68
2023-02-14T10:10:02.986Z,10.66
2023-02-14T10:12:36.847Z,10.88
2023-02-14T10:15:19.148Z,11.10
2023-02-14T10:17:52.339Z,11.25
2023-02-14T10:20:29.277Z,11.29
2023-02-14T10:23:24.811Z,11.66
2023-02-14T10:26:25.068Z,11.91
2023-02-14T10:28:54.367Z,11.73
2023-02-14T10:31:25.671Z,11.51
2023-02-14T10:33:57.855Z,11.71
2023-02-14T10:37:07.156Z,11.81
2023-02-14T10:39:46.169Z,11.87
2023-02-14T10:42:25.507Z,12.03
2023-02-14T10:44:58.874Z,12.19
2023-02-14T10:47:53.899Z,12.34
2023-02-14T10:50:50.249Z,12.58
2023-02-14T10:53:26.842Z,12.68
2023-02-14T10:56:02.691Z,12.67
2023-02-14T10:58:36.274Z,12.56
2023-02-14T11:01:12.304Z,12.63
2023-02-14T11:03:49.294Z,12.81
2023-02-14T11:06:16.876Z,13.07
2023-02-14T11:08:44.269Z,13.29
2023-02-14T11:11:20.694Z,13.44
2023-02-14T11:13:48.608Z,13.33
2023-02-14T11:16:31.191Z,13.27
2023-02-14T11:19:24.837Z,13.29
2023-02-14T11:21:55.054Z,13.18
2023-02-14T11:24:31.816Z,13.21
2023-02-14T11:27:04.048Z,13.31
2023-02-14T11:29:57.553Z,13.60
2023-02-14T11:32:28.629Z,13.71
2023-02-14T11:35:17.376Z,13.81
2023-02-14T11:37:51.106Z,13.90
2023-02-14T11:40:39.640Z,14.14
2023-02-14T11:43:16.027Z,14.01
2023-02-14T11:45:46.333Z,14.09
2023-02-14T11:48:37.848Z,14.19
2023-02-14T11:51:14.609Z,14.13
2023-02-14T11:53:56.036Z,14.16
2023-02-14T11:56:24.527Z,14.20
2023-02-14T11:59:03.914Z,14.08
2023-02-14T12:01:35.081Z,13.97
2023-02-14T12:04:07.741Z,14.07
2023-02-14T12:06:36.701Z,13.97
2023-02-14T12:09:24.059Z,14.07
2023-02-14T12:12:16.920Z,14.14
2023-02-14T12:14:45.230Z,14.14
2023-02-14T12:17:18.973Z,14.18
2023-02-14T12:20:01.087Z,14.25
2023-02-14T12:22:35.283Z,14.29
2023-02-14T12:25:19.254Z,14.31
2023-02-14T12:27:54.686Z,14.31
2023-02-14T12:30:24.919Z,14.40
2023-02-14T12:32:56.488Z,14.32
2023-02-14T12:35:48.626Z,14.05
2023-02-14T12:38:39.629Z,14.12
2023-02-14T12:41:41.885Z,14.01
2023-02-14T12:44:34.099Z,13.92
2023-02-14T12:47:13.100Z,13.91
2023-02-14T12:49:40.545Z,13.98
2023-02-14T12:52:41.791Z,14.06
2023-02-14T12:55:34.918Z,14.04
2023-02-14T12:58:41.102Z,14.04
2023-02-14T13:01:39.061Z,14.06
2023-02-14T13:04:44.575Z,14.13
2023-02-14T13:07:12.201Z,14.05
2023-02-14T13:09:52.096Z,14.03
2023-02-14T13:12:41.903Z,14.03
2023-02-14T13:15:26.060Z,14.05
2023-02-14T13:18:05.634Z,14.03
2023-02-14T13:20:59.305Z,14.08
2023-02-14T13:23:38.605Z,14.08
2023-02-14T13:26:17.722Z,13.96
2023-02-14T13:28:52.530Z,13.92
2023-02-14T13:31:21.286Z,13.86
2023-02-14T13:33:57.048Z,13.84
2023-02-14T13:36:27.638Z,13.79
2023-02-14T13:38:58.001Z,13.68
2023-02-14T13:41:28.170Z,13.60
2023-02-14T13:43:56.815Z,13.49
2023-02-14T13:46:30.497Z,13.48
2023-02-14T13:49:05.986Z,13.49
2023-02-14T13:51:50.450Z,13.48
2023-02-14T13:54:41.250Z,13.46
2023-02-14T13:57:28.474Z,13.49
2023-02-14T14:00:17.840Z,13.42
2023-02-14T14:02:46.368Z,13.50
2023-02-14T14:05:42.982Z,13.58
2023-02-14T14:08:36.765Z,13.64
2023-02-14T14:11:11.828Z,13.68
2023-02-14T14:13:42.390Z,13.72
2023-02-14T14:16:27.436Z,13.74
2023-02-14T14:19:19.280Z,13.79
2023-02-14T14:22:05.944Z,13.85
2023-02-14T14:24:36.580Z,13.93
2023-02-14T14:27:25.556Z,13.95
2023-02-14T14:29:58.760Z,14.02
2023-02-14T14:32:32.909Z,14.03
2023-02-14T14:35:03.225Z,14.02
2023-02-14T14:37:33.478Z,14.02
2023-02-14T14:40:04.079Z,13.97
2023-02-14T14:42:37.988Z,13.79
2023-02-14T14:45:18.568Z,13.79
2023-02-14T14:47:47.593Z,13.85
2023-02-14T14:50:35.648Z,13.81
2023-02-14T14:53:06.981Z,13.91
2023-02-14T14:55:37.861Z,14.00
2023-02-14T14:58:29.368Z,13.97
2023-02-14T15:00:56.920Z,14.02
2023-02-14T15:03:27.142Z,14.12
2023-02-14T15:06:08.384Z,14.19
2023-02-14T15:08:36.300Z,14.22
2023-02-14T15:11:34.939Z,14.21
2023-02-14T15:14:05.835Z,14.20
2023-02-14T15:16:36.640Z,14.20
2023-02-14T15:19:12.982Z,14.08
2023-02-14T15:21:44.427Z,14.06
2023-02-14T15:24:16.230Z,14.06
2023-02-14T15:26:46.869Z,14.01
2023-02-14T15:29:29.561Z,14.01
2023-02-14T15:32:02.496Z,14.05
2023-02-14T15:34:36.157Z,14.02
2023-02-14T15:37:06.794Z,13.89
2023-02-14T15:39:40.482Z,13.90
2023-02-14T15:42:33.064Z,13.88
2023-02-14T15:45:28.103Z,13.90
2023-02-14T15:47:57.485Z,13.88
2023-02-14T15:50:27.981Z,13.87
2023-02-14T15:53:04.316Z,13.84
2023-02-14T15:55:33.700Z,13.87
2023-02-14T15:58:06.987Z,13.78
2023-02-14T16:00:35.740Z,13.85
2023-02-14T16:03:09.049Z,13.89
2023-02-14T16:05:36.787Z,13.91
2023-02-14T16:08:40.150Z,13.85
2023-02-14T16:11:35.547Z,13.81
2023-02-14T16:14:36.339Z,13.74
2023-02-14T16:17:06.916Z,13.67
2023-02-14T16:19:35.901Z,13.61
2023-02-14T16:22:04.571Z,13.60
2023-02-14T16:24:31.988Z,13.58
2023-02-14T16:27:06.798Z,13.67
2023-02-14T16:29:36.284Z,13.64
2023-02-14T16:32:20.305Z,13.52
2023-02-14T16:34:48.764Z,13.45
2023-02-14T16:37:23.712Z,13.47
2023-02-14T16:39:54.609Z,13.43
2023-02-14T16:42:22.208Z,13.41
2023-02-14T16:44:50.954Z,13.23
2023-02-14T16:47:20.619Z,13.16
2023-02-14T16:49:48.688Z,13.18
2023-02-14T16:52:23.895Z,13.12
2023-02-14T16:54:52.039Z,13.09
2023-02-14T16:57:35.675Z,13.00
2023-02-14T17:00:06.553Z,12.95
2023-02-14T17:02:34.752Z,12.82
2023-02-14T17:05:02.279Z,12.74
2023-02-14T17:07:33.154Z,12.69
2023-02-14T17:10:05.721Z,12.55
2023-02-14T17:12:38.495Z,12.61
2023-02-14T17:15:13.073Z,12.58
2023-02-14T17:17:41.956Z,12.46
2023-02-14T17:20:09.846Z,12.42
2023-02-14T17:22:37.857Z,12.35
2023-02-14T17:25:06.213Z,12.27
2023-02-14T17:27:33.908Z,12.22
2023-02-14T17:30:01.532Z,12.15
2023-02-14T17:32:29.233Z,12.07
2023-02-14T17:34:57.159Z,12.01
2023-02-14T17:37:24.729Z,11.91
2023-02-14T17:39:53.116Z,11.81
2023-02-14T17:42:20.851Z,11.72
2023-02-14T17:44:48.565Z,11.77
2023-02-14T17:47:18.221Z,11.79
2023-02-14T17:49:47.477Z,11.72
2023-02-14T17:52:15.878Z,11.60
2023-02-14T17:54:44.008Z,11.53
2023-02-14T17:57:12.803Z,11.55
2023-02-14T17:59:40.317Z,11.50
2023-02-14T18:02:07.812Z,11.32
2023-02-14T18:04:37.270Z,11.25
2023-02-14T18:07:05.944Z,11.21
2023-02-14T18:09:33.781Z,11.20
2023-02-14T18:12:01.381Z,11.19
2023-02-14T18:14:28.854Z,11.20
2023-02-14T18:16:56.310Z,11.12
2023-02-14T18:19:23.520Z,11.07
2023-02-14T18:21:50.717Z,11.05
2023-02-14T18:24:18.049Z,11.02
2023-02-14T18:26:46.415Z,10.99
2023-02-14T18:29:14.084Z,10.99
2023-02-14T18:31:43.425Z,10.92
2023-02-14T18:34:11.364Z,10.88
2023-02-14T18:36:41.641Z,10.84
2023-02-14T18:39:10.624Z,10.82
2023-02-14T18:41:38.259Z,10.73
2023-02-14T18:44:06.506Z,10.70
2023-02-14T18:46:35.732Z,10.75
2023-02-14T18:49:06.101Z,10.68
2023-02-14T18:51:35.967Z,10.57
2023-02-14T18:54:04.717Z,10.53
2023-02-14T18:56:35.870Z,10.50
2023-02-14T18:59:06.248Z,10.52
2023-02-14T19:01:36.893Z,10.40
2023-02-14T19:04:06.875Z,10.38
2023-02-14T19:06:35.598Z,10.35
2023-02-14T19:09:04.298Z,10.27
2023-02-14T19:11:32.816Z,10.24
2023-02-14T19:14:02.404Z,10.27
2023-02-14T19:16:34.130Z,10.16
2023-02-14T19:19:02.896Z,10.13
2023-02-14T19:21:36.890Z,10.08
2023-02-14T19:24:07.092Z,10.05
2023-02-14T19:26:40.309Z,10.11
2023-02-14T19:29:17.066Z,10.05
2023-02-14T19:31:49.949Z,10.00
2023-02-14T19:34:31.889Z,9.92
2023-02-14T19:37:01.370Z,9.91
2023-02-14T19:39:30.240Z,9.87
2023-02-14T19:41:58.700Z,9.79
2023-02-14T19:44:26.156Z,9.89
2023-02-14T19:47:00.043Z,9.81
2023-02-14T19:49:29.165Z,9.90
2023-02-14T19:51:57.289Z,9.88
2023-02-14T19:54:25.797Z,9.86
2023-02-14T19:56:54.088Z,9.85
2023-02-14T19:59:22.885Z,9.74
2023-02-14T20:01:53.090Z,9.74
2023-02-14T20:04:25.606Z,9.67
2023-02-14T20:06:54.000Z,9.74
2023-02-14T20:09:22.935Z,9.80
2023-02-14T20:11:57.870Z,9.72
2023-02-14T20:14:26.887Z,9.62
2023-02-14T20:16:56.176Z,9.66
2023-02-14T20:19:27.121Z,9.51
2023-02-14T20:21:55.033Z,9.58
2023-02-14T20:24:25.579Z,9.55
2023-02-14T20:26:53.883Z,9.49
2023-02-14T20:29:22.964Z,9.40
2023-02-14T20:31:53.164Z,9.49
2023-02-14T20:34:21.422Z,9.68
2023-02-14T20:36:56.080Z,9.59
2023-02-14T20:39:28.937Z,9.51
2023-02-14T20:41:56.738Z,9.42
2023-02-14T20:44:24.287Z,9.45
2023-02-14T20:46:53.898Z,9.40
2023-02-14T20:49:22.812Z,9.43
2023-02-14T20:51:51.445Z,9.47
2023-02-14T20:54:24.377Z,9.51
2023-02-14T20:56:52.933Z,9.46
2023-02-14T20:59:27.077Z,9.26
2023-02-14T21:01:56.704Z,9.29
2023-02-14T21:04:25.395Z,9.19
2023-02-14T21:06:53.115Z,9.20
2023-02-14T21:09:20.893Z,9.21
2023-02-14T21:11:49.665Z,9.31
2023-02-14T21:14:17.535Z,9.28
2023-02-14T21:16:45.095Z,9.18
2023-02-14T21:19:12.555Z,9.01
2023-02-14T21:21:40.282Z,8.96
2023-02-14T21:24:12.218Z,8.86
2023-02-14T21:26:40.331Z,9.01
2023-02-14T21:29:08.705Z,9.02
2023-02-14T21:31:37.085Z,8.94
2023-02-14T21:34:04.953Z,8.96
2023-02-14T21:36:37.246Z,8.84
2023-02-14T21:39:06.640Z,8.96
2023-02-14T21:41:35.697Z,8.95
2023-02-14T21:44:04.695Z,8.80
2023-02-14T21:46:36.094Z,8.74
2023-02-14T21:49:24.173Z,8.68
2023-02-14T21:51:51.748Z,8.52
2023-02-14T21:54:19.314Z,8.63
2023-02-14T21:56:46.909Z,8.57
2023-02-14T21:59:14.505Z,8.62
2023-02-14T22:01:42.640Z,8.64
2023-02-14T22:04:12.629Z,8.69
2023-02-14T22:06:41.926Z,8.50
2023-02-14T22:09:11.015Z,8.41
2023-02-14T22:11:38.639Z,8.36
2023-02-14T22:14:06.109Z,8.39
2023-02-14T22:16:36.792Z,8.34
2023-02-14T22:19:08.337Z,8.41
2023-02-14T22:21:35.807Z,8.51
2023-02-14T22:24:03.166Z,8.32
2023-02-14T22:26:40.941Z,8.29
2023-02-14T22:29:11.760Z,8.21
2023-02-14T22:31:42.499Z,8.23
2023-02-14T22:34:12.851Z,8.32
2023-02-14T22:36:40.641Z,8.15
2023-02-14T22:39:09.511Z,8.35
2023-02-14T22:41:37.999Z,8.27
2023-02-14T22:44:06.208Z,8.20
2023-02-14T22:46:33.935Z,8.19
2023-02-14T22:49:01.488Z,8.16
2023-02-14T22:51:39.350Z,8.06
2023-02-14T22:54:15.399Z,8.04
2023-02-14T22:56:45.680Z,7.98
2023-02-14T22:59:24.412Z,8.01
2023-02-14T23:01:53.453Z,7.97
2023-02-14T23:04:22.483Z,7.94
2023-02-14T23:06:52.075Z,7.97
2023-02-14T23:09:20.086Z,7.91
2023-02-14T23:11:48.827Z,7.88
2023-02-14T23:14:36.288Z,7.68
2023-02-14T23:17:23.796Z,7.67
2023-02-14T23:20:10.328Z,7.81
2023-02-14T23:22:39.582Z,7.75
2023-02-14T23:25:12.336Z,7.74
2023-02-14T23:27:44.249Z,7.69
2023-02-14T23:30:15.770Z,7.51
2023-02-14T23:32:44.023Z,7.43
2023-02-14T23:35:11.671Z,7.41
2023-02-14T23:37:39.347Z,7.44
2023-02-14T23:40:07.565Z,7.28
2023-02-14T23:42:35.147Z,7.35
2023-02-14T23:45:21.233Z,7.53
2023-02-14T23:47:48.815Z,7.41
2023-02-14T23:50:16.271Z,7.34
2023-02-14T23:52:44.714Z,7.34
2023-02-14T23:55:12.854Z,7.41
2023-02-14T23:57:40.372Z,7.53
